sensor_id;sensor_type;location;lat;lon;timestamp;P1;durP1;ratioP1;P2;durP2;ratioP2
42614;SDS011;28754;47.700;7.924;2023-12-22T00:00:38;10.93;;;1.48;;
42614;SDS011;28754;47.700;7.924;2023-12-22T00:03:25;3.08;;;1.30;;
42614;SDS011;28754;47.700;7.924;2023-12-22T00:06:12;12.63;;;2.67;;
42614;SDS011;28754;47.700;7.924;2023-12-22T00:08:59;62.45;;;6.25;;
42614;SDS011;28754;47.700;7.924;2023-12-22T00:11:45;93.18;;;6.22;;
42614;SDS011;28754;47.700;7.924;2023-12-22T00:14:32;12.35;;;1.55;;
42614;SDS011;28754;47.700;7.924;2023-12-22T00:17:19;6.20;;;1.70;;
42614;SDS011;28754;47.700;7.924;2023-12-22T00:20:05;2.88;;;0.90;;
42614;SDS011;28754;47.700;7.924;2023-12-22T00:22:55;8.63;;;1.33;;
42614;SDS011;28754;47.700;7.924;2023-12-22T00:25:41;160.75;;;13.00;;
42614;SDS011;28754;47.700;7.924;2023-12-22T00:28:28;16.63;;;2.25;;
42614;SDS011;28754;47.700;7.924;2023-12-22T00:31:14;21.60;;;2.05;;
42614;SDS011;28754;47.700;7.924;2023-12-22T00:34:01;0.73;;;0.50;;
42614;SDS011;28754;47.700;7.924;2023-12-22T00:36:48;36.15;;;2.33;;
42614;SDS011;28754;47.700;7.924;2023-12-22T00:39:34;1.05;;;0.43;;
42614;SDS011;28754;47.700;7.924;2023-12-22T00:42:21;0.32;;;0.25;;
42614;SDS011;28754;47.700;7.924;2023-12-22T00:45:08;1.65;;;0.80;;
42614;SDS011;28754;47.700;7.924;2023-12-22T00:47:55;7.00;;;0.85;;
42614;SDS011;28754;47.700;7.924;2023-12-22T00:50:41;6.95;;;1.73;;
42614;SDS011;28754;47.700;7.924;2023-12-22T00:53:28;6.07;;;1.65;;
42614;SDS011;28754;47.700;7.924;2023-12-22T00:56:15;4.95;;;2.03;;
42614;SDS011;28754;47.700;7.924;2023-12-22T00:59:01;6.38;;;1.77;;
42614;SDS011;28754;47.700;7.924;2023-12-22T01:01:48;8.32;;;2.10;;
42614;SDS011;28754;47.700;7.924;2023-12-22T01:04:35;4.85;;;2.05;;
42614;SDS011;28754;47.700;7.924;2023-12-22T01:07:22;5.80;;;1.90;;
42614;SDS011;28754;47.700;7.924;2023-12-22T01:10:09;9.20;;;2.38;;
42614;SDS011;28754;47.700;7.924;2023-12-22T01:12:55;4.88;;;1.70;;
42614;SDS011;28754;47.700;7.924;2023-12-22T01:15:42;5.90;;;1.77;;
42614;SDS011;28754;47.700;7.924;2023-12-22T01:18:29;3.42;;;1.73;;
42614;SDS011;28754;47.700;7.924;2023-12-22T01:21:17;5.60;;;1.25;;
42614;SDS011;28754;47.700;7.924;2023-12-22T01:24:04;9.00;;;2.47;;
42614;SDS011;28754;47.700;7.924;2023-12-22T01:26:51;5.18;;;1.80;;
42614;SDS011;28754;47.700;7.924;2023-12-22T01:29:37;3.35;;;1.30;;
42614;SDS011;28754;47.700;7.924;2023-12-22T01:32:24;2.92;;;1.45;;
42614;SDS011;28754;47.700;7.924;2023-12-22T01:35:11;3.38;;;1.27;;
42614;SDS011;28754;47.700;7.924;2023-12-22T01:37:57;7.78;;;2.00;;
42614;SDS011;28754;47.700;7.924;2023-12-22T01:40:44;8.55;;;2.42;;
42614;SDS011;28754;47.700;7.924;2023-12-22T01:43:31;7.90;;;2.30;;
42614;SDS011;28754;47.700;7.924;2023-12-22T01:46:17;9.07;;;2.83;;
42614;SDS011;28754;47.700;7.924;2023-12-22T01:49:04;15.95;;;3.03;;
42614;SDS011;28754;47.700;7.924;2023-12-22T01:51:53;52.47;;;6.13;;
42614;SDS011;28754;47.700;7.924;2023-12-22T01:54:40;86.72;;;7.15;;
42614;SDS011;28754;47.700;7.924;2023-12-22T01:57:26;24.73;;;3.65;;
42614;SDS011;28754;47.700;7.924;2023-12-22T02:00:13;5.15;;;1.63;;
42614;SDS011;28754;47.700;7.924;2023-12-22T02:03:00;6.03;;;1.90;;
42614;SDS011;28754;47.700;7.924;2023-12-22T02:05:48;5.60;;;1.30;;
42614;SDS011;28754;47.700;7.924;2023-12-22T02:08:35;9.93;;;0.98;;
42614;SDS011;28754;47.700;7.924;2023-12-22T02:11:22;2.70;;;1.35;;
42614;SDS011;28754;47.700;7.924;2023-12-22T02:14:09;4.85;;;1.40;;
42614;SDS011;28754;47.700;7.924;2023-12-22T02:17:06;9.90;;;1.33;;
42614;SDS011;28754;47.700;7.924;2023-12-22T02:20:08;185.90;;;18.38;;
42614;SDS011;28754;47.700;7.924;2023-12-22T02:22:57;102.60;;;9.38;;
42614;SDS011;28754;47.700;7.924;2023-12-22T02:25:43;4.80;;;1.40;;
42614;SDS011;28754;47.700;7.924;2023-12-22T02:28:30;79.90;;;6.93;;
42614;SDS011;28754;47.700;7.924;2023-12-22T02:31:40;13.68;;;2.22;;
42614;SDS011;28754;47.700;7.924;2023-12-22T02:34:30;6.53;;;1.08;;
42614;SDS011;28754;47.700;7.924;2023-12-22T02:37:22;40.60;;;3.45;;
42614;SDS011;28754;47.700;7.924;2023-12-22T02:40:10;1.52;;;0.80;;
42614;SDS011;28754;47.700;7.924;2023-12-22T02:42:58;1.23;;;0.75;;
42614;SDS011;28754;47.700;7.924;2023-12-22T02:45:49;1.58;;;1.00;;
42614;SDS011;28754;47.700;7.924;2023-12-22T02:48:37;6.03;;;1.20;;
42614;SDS011;28754;47.700;7.924;2023-12-22T02:51:23;5.43;;;0.95;;
42614;SDS011;28754;47.700;7.924;2023-12-22T02:54:10;2.90;;;1.30;;
42614;SDS011;28754;47.700;7.924;2023-12-22T02:56:57;18.90;;;1.83;;
42614;SDS011;28754;47.700;7.924;2023-12-22T02:59:44;8.65;;;1.50;;
42614;SDS011;28754;47.700;7.924;2023-12-22T03:02:31;9.13;;;1.65;;
42614;SDS011;28754;47.700;7.924;2023-12-22T03:05:18;8.55;;;1.98;;
42614;SDS011;28754;47.700;7.924;2023-12-22T03:08:04;1.50;;;1.10;;
42614;SDS011;28754;47.700;7.924;2023-12-22T03:10:51;5.20;;;1.80;;
42614;SDS011;28754;47.700;7.924;2023-12-22T03:13:38;4.43;;;1.17;;
42614;SDS011;28754;47.700;7.924;2023-12-22T03:16:25;2.88;;;0.93;;
42614;SDS011;28754;47.700;7.924;2023-12-22T03:19:11;1.42;;;0.73;;
42614;SDS011;28754;47.700;7.924;2023-12-22T03:21:58;2.47;;;1.15;;
42614;SDS011;28754;47.700;7.924;2023-12-22T03:24:45;3.45;;;0.80;;
42614;SDS011;28754;47.700;7.924;2023-12-22T03:27:32;3.97;;;0.70;;
42614;SDS011;28754;47.700;7.924;2023-12-22T03:30:18;2.67;;;0.73;;
42614;SDS011;28754;47.700;7.924;2023-12-22T03:33:05;3.38;;;0.80;;
42614;SDS011;28754;47.700;7.924;2023-12-22T03:35:52;3.63;;;0.93;;
42614;SDS011;28754;47.700;7.924;2023-12-22T03:38:39;4.35;;;1.05;;
42614;SDS011;28754;47.700;7.924;2023-12-22T03:41:26;4.53;;;0.90;;
42614;SDS011;28754;47.700;7.924;2023-12-22T03:44:12;2.92;;;0.55;;
42614;SDS011;28754;47.700;7.924;2023-12-22T03:46:59;0.47;;;0.30;;
42614;SDS011;28754;47.700;7.924;2023-12-22T03:49:46;0.60;;;0.30;;
42614;SDS011;28754;47.700;7.924;2023-12-22T03:52:33;3.92;;;0.65;;
42614;SDS011;28754;47.700;7.924;2023-12-22T03:55:19;8.70;;;2.00;;
42614;SDS011;28754;47.700;7.924;2023-12-22T03:58:06;4.63;;;0.90;;
42614;SDS011;28754;47.700;7.924;2023-12-22T04:00:53;20.08;;;2.30;;
42614;SDS011;28754;47.700;7.924;2023-12-22T04:03:40;8.63;;;2.13;;
42614;SDS011;28754;47.700;7.924;2023-12-22T04:06:26;20.15;;;2.63;;
42614;SDS011;28754;47.700;7.924;2023-12-22T04:09:13;46.55;;;5.15;;
42614;SDS011;28754;47.700;7.924;2023-12-22T04:12:00;7.32;;;2.33;;
42614;SDS011;28754;47.700;7.924;2023-12-22T04:14:48;7.82;;;2.03;;
42614;SDS011;28754;47.700;7.924;2023-12-22T04:17:34;7.30;;;1.27;;
42614;SDS011;28754;47.700;7.924;2023-12-22T04:20:21;6.65;;;1.52;;
42614;SDS011;28754;47.700;7.924;2023-12-22T04:23:07;3.58;;;1.10;;
42614;SDS011;28754;47.700;7.924;2023-12-22T04:25:54;5.03;;;1.35;;
42614;SDS011;28754;47.700;7.924;2023-12-22T04:28:41;6.00;;;1.25;;
42614;SDS011;28754;47.700;7.924;2023-12-22T04:31:28;4.43;;;1.30;;
42614;SDS011;28754;47.700;7.924;2023-12-22T04:34:14;2.75;;;1.25;;
42614;SDS011;28754;47.700;7.924;2023-12-22T04:37:01;9.95;;;1.55;;
42614;SDS011;28754;47.700;7.924;2023-12-22T04:39:48;8.52;;;1.33;;
42614;SDS011;28754;47.700;7.924;2023-12-22T04:42:35;4.40;;;1.20;;
42614;SDS011;28754;47.700;7.924;2023-12-22T04:45:21;1.45;;;0.73;;
42614;SDS011;28754;47.700;7.924;2023-12-22T04:48:08;3.83;;;1.23;;
42614;SDS011;28754;47.700;7.924;2023-12-22T04:50:55;6.65;;;2.28;;
42614;SDS011;28754;47.700;7.924;2023-12-22T04:53:41;2.25;;;0.80;;
42614;SDS011;28754;47.700;7.924;2023-12-22T04:56:28;2.53;;;1.08;;
42614;SDS011;28754;47.700;7.924;2023-12-22T04:59:14;1.40;;;0.70;;
42614;SDS011;28754;47.700;7.924;2023-12-22T05:02:01;3.05;;;0.80;;
42614;SDS011;28754;47.700;7.924;2023-12-22T05:04:48;3.55;;;0.88;;
42614;SDS011;28754;47.700;7.924;2023-12-22T05:07:34;6.45;;;1.45;;
42614;SDS011;28754;47.700;7.924;2023-12-22T05:10:21;29.45;;;2.70;;
42614;SDS011;28754;47.700;7.924;2023-12-22T05:13:08;20.63;;;4.07;;
42614;SDS011;28754;47.700;7.924;2023-12-22T05:15:55;14.70;;;2.92;;
42614;SDS011;28754;47.700;7.924;2023-12-22T05:18:41;12.10;;;3.40;;
42614;SDS011;28754;47.700;7.924;2023-12-22T05:21:28;37.90;;;4.10;;
42614;SDS011;28754;47.700;7.924;2023-12-22T05:24:15;6.38;;;1.40;;
42614;SDS011;28754;47.700;7.924;2023-12-22T05:27:02;7.55;;;2.08;;
42614;SDS011;28754;47.700;7.924;2023-12-22T05:29:50;11.15;;;2.38;;
42614;SDS011;28754;47.700;7.924;2023-12-22T05:32:36;3.67;;;1.42;;
42614;SDS011;28754;47.700;7.924;2023-12-22T05:35:23;25.63;;;2.80;;
42614;SDS011;28754;47.700;7.924;2023-12-22T05:38:10;215.68;;;19.50;;
42614;SDS011;28754;47.700;7.924;2023-12-22T05:40:57;13.15;;;3.05;;
42614;SDS011;28754;47.700;7.924;2023-12-22T05:43:43;157.23;;;19.70;;
42614;SDS011;28754;47.700;7.924;2023-12-22T05:46:30;8.63;;;2.20;;
42614;SDS011;28754;47.700;7.924;2023-12-22T05:49:17;17.60;;;2.88;;
42614;SDS011;28754;47.700;7.924;2023-12-22T05:52:04;14.15;;;2.38;;
42614;SDS011;28754;47.700;7.924;2023-12-22T05:54:50;14.90;;;3.22;;
42614;SDS011;28754;47.700;7.924;2023-12-22T05:57:37;6.43;;;1.75;;
42614;SDS011;28754;47.700;7.924;2023-12-22T06:00:24;11.18;;;1.83;;
42614;SDS011;28754;47.700;7.924;2023-12-22T06:03:12;13.02;;;2.10;;
42614;SDS011;28754;47.700;7.924;2023-12-22T06:06:00;7.70;;;1.83;;
42614;SDS011;28754;47.700;7.924;2023-12-22T06:08:46;4.82;;;1.15;;
42614;SDS011;28754;47.700;7.924;2023-12-22T06:11:33;20.92;;;2.88;;
42614;SDS011;28754;47.700;7.924;2023-12-22T06:14:20;52.55;;;7.00;;
42614;SDS011;28754;47.700;7.924;2023-12-22T06:17:06;9.88;;;2.25;;
42614;SDS011;28754;47.700;7.924;2023-12-22T06:19:53;34.67;;;5.15;;
42614;SDS011;28754;47.700;7.924;2023-12-22T06:22:40;9.43;;;2.22;;
42614;SDS011;28754;47.700;7.924;2023-12-22T06:25:27;141.38;;;15.25;;
42614;SDS011;28754;47.700;7.924;2023-12-22T06:28:13;106.07;;;14.25;;
42614;SDS011;28754;47.700;7.924;2023-12-22T06:31:02;145.88;;;9.75;;
42614;SDS011;28754;47.700;7.924;2023-12-22T06:33:50;146.63;;;15.20;;
42614;SDS011;28754;47.700;7.924;2023-12-22T06:36:37;73.93;;;7.32;;
42614;SDS011;28754;47.700;7.924;2023-12-22T06:39:24;120.07;;;9.13;;
42614;SDS011;28754;47.700;7.924;2023-12-22T06:42:10;8.27;;;1.65;;
42614;SDS011;28754;47.700;7.924;2023-12-22T06:44:58;10.45;;;2.40;;
42614;SDS011;28754;47.700;7.924;2023-12-22T06:47:44;8.63;;;1.90;;
42614;SDS011;28754;47.700;7.924;2023-12-22T06:50:31;8.38;;;1.77;;
42614;SDS011;28754;47.700;7.924;2023-12-22T06:53:18;10.18;;;3.35;;
42614;SDS011;28754;47.700;7.924;2023-12-22T06:56:14;13.02;;;3.85;;
42614;SDS011;28754;47.700;7.924;2023-12-22T06:59:08;7.25;;;1.48;;
42614;SDS011;28754;47.700;7.924;2023-12-22T07:01:57;96.72;;;9.02;;
42614;SDS011;28754;47.700;7.924;2023-12-22T07:05:04;20.55;;;3.40;;
42614;SDS011;28754;47.700;7.924;2023-12-22T07:08:10;6.68;;;2.10;;
42614;SDS011;28754;47.700;7.924;2023-12-22T07:10:57;14.15;;;2.13;;
42614;SDS011;28754;47.700;7.924;2023-12-22T07:13:44;82.68;;;8.07;;
42614;SDS011;28754;47.700;7.924;2023-12-22T07:16:32;23.15;;;2.67;;
42614;SDS011;28754;47.700;7.924;2023-12-22T07:19:19;121.18;;;12.60;;
42614;SDS011;28754;47.700;7.924;2023-12-22T07:22:06;30.70;;;5.03;;
42614;SDS011;28754;47.700;7.924;2023-12-22T07:24:53;38.45;;;5.60;;
42614;SDS011;28754;47.700;7.924;2023-12-22T07:27:41;36.38;;;4.45;;
42614;SDS011;28754;47.700;7.924;2023-12-22T07:30:28;8.73;;;1.88;;
42614;SDS011;28754;47.700;7.924;2023-12-22T07:33:14;11.50;;;1.92;;
42614;SDS011;28754;47.700;7.924;2023-12-22T07:36:01;7.30;;;2.33;;
42614;SDS011;28754;47.700;7.924;2023-12-22T07:38:48;10.13;;;2.15;;
42614;SDS011;28754;47.700;7.924;2023-12-22T07:41:35;6.40;;;2.10;;
42614;SDS011;28754;47.700;7.924;2023-12-22T07:44:21;12.07;;;3.08;;
42614;SDS011;28754;47.700;7.924;2023-12-22T07:47:08;14.07;;;3.75;;
42614;SDS011;28754;47.700;7.924;2023-12-22T07:49:56;12.02;;;2.42;;
42614;SDS011;28754;47.700;7.924;2023-12-22T07:52:43;16.25;;;2.58;;
42614;SDS011;28754;47.700;7.924;2023-12-22T07:55:29;35.75;;;7.13;;
42614;SDS011;28754;47.700;7.924;2023-12-22T07:58:16;10.85;;;2.50;;
42614;SDS011;28754;47.700;7.924;2023-12-22T08:01:03;67.13;;;8.15;;
42614;SDS011;28754;47.700;7.924;2023-12-22T08:03:51;14.73;;;3.10;;
42614;SDS011;28754;47.700;7.924;2023-12-22T08:06:38;28.58;;;3.15;;
42614;SDS011;28754;47.700;7.924;2023-12-22T08:09:24;148.30;;;16.20;;
42614;SDS011;28754;47.700;7.924;2023-12-22T08:12:11;236.00;;;23.33;;
42614;SDS011;28754;47.700;7.924;2023-12-22T08:14:58;53.58;;;6.63;;
42614;SDS011;28754;47.700;7.924;2023-12-22T08:17:48;260.45;;;24.67;;
42614;SDS011;28754;47.700;7.924;2023-12-22T08:20:36;470.67;;;46.20;;
42614;SDS011;28754;47.700;7.924;2023-12-22T08:23:23;508.33;;;48.45;;
42614;SDS011;28754;47.700;7.924;2023-12-22T08:26:09;68.13;;;7.63;;
42614;SDS011;28754;47.700;7.924;2023-12-22T08:28:56;11.15;;;1.95;;
42614;SDS011;28754;47.700;7.924;2023-12-22T08:31:43;123.93;;;12.95;;
42614;SDS011;28754;47.700;7.924;2023-12-22T08:34:29;125.75;;;12.98;;
42614;SDS011;28754;47.700;7.924;2023-12-22T08:37:16;306.52;;;33.92;;
42614;SDS011;28754;47.700;7.924;2023-12-22T08:40:03;413.48;;;40.45;;
42614;SDS011;28754;47.700;7.924;2023-12-22T08:42:58;245.52;;;22.80;;
42614;SDS011;28754;47.700;7.924;2023-12-22T08:45:50;258.15;;;28.90;;
42614;SDS011;28754;47.700;7.924;2023-12-22T08:48:37;465.10;;;50.35;;
42614;SDS011;28754;47.700;7.924;2023-12-22T08:51:24;199.15;;;21.38;;
42614;SDS011;28754;47.700;7.924;2023-12-22T08:54:12;98.10;;;10.43;;
42614;SDS011;28754;47.700;7.924;2023-12-22T08:56:59;14.88;;;3.42;;
42614;SDS011;28754;47.700;7.924;2023-12-22T08:59:46;51.83;;;6.95;;
42614;SDS011;28754;47.700;7.924;2023-12-22T09:02:33;48.20;;;8.20;;
42614;SDS011;28754;47.700;7.924;2023-12-22T09:05:20;18.42;;;6.80;;
42614;SDS011;28754;47.700;7.924;2023-12-22T09:08:07;11.73;;;3.17;;
42614;SDS011;28754;47.700;7.924;2023-12-22T09:10:53;18.17;;;4.05;;
42614;SDS011;28754;47.700;7.924;2023-12-22T09:13:40;11.82;;;2.20;;
42614;SDS011;28754;47.700;7.924;2023-12-22T09:16:27;15.52;;;3.40;;
42614;SDS011;28754;47.700;7.924;2023-12-22T09:19:14;14.02;;;2.83;;
42614;SDS011;28754;47.700;7.924;2023-12-22T09:22:01;18.48;;;2.80;;
42614;SDS011;28754;47.700;7.924;2023-12-22T09:24:47;17.50;;;3.30;;
42614;SDS011;28754;47.700;7.924;2023-12-22T09:27:34;18.23;;;4.32;;
42614;SDS011;28754;47.700;7.924;2023-12-22T09:30:21;19.08;;;4.28;;
42614;SDS011;28754;47.700;7.924;2023-12-22T09:33:08;15.98;;;3.10;;
42614;SDS011;28754;47.700;7.924;2023-12-22T09:35:56;10.02;;;2.50;;
42614;SDS011;28754;47.700;7.924;2023-12-22T09:38:42;13.48;;;2.95;;
42614;SDS011;28754;47.700;7.924;2023-12-22T09:41:29;19.02;;;3.15;;
42614;SDS011;28754;47.700;7.924;2023-12-22T09:44:18;36.28;;;3.92;;
42614;SDS011;28754;47.700;7.924;2023-12-22T09:47:07;9.32;;;2.05;;
42614;SDS011;28754;47.700;7.924;2023-12-22T09:49:57;90.70;;;8.27;;
42614;SDS011;28754;47.700;7.924;2023-12-22T09:52:45;68.70;;;7.75;;
42614;SDS011;28754;47.700;7.924;2023-12-22T09:55:32;261.30;;;25.05;;
42614;SDS011;28754;47.700;7.924;2023-12-22T09:58:20;372.00;;;38.88;;
42614;SDS011;28754;47.700;7.924;2023-12-22T10:01:08;363.77;;;38.60;;
42614;SDS011;28754;47.700;7.924;2023-12-22T10:03:55;228.05;;;21.13;;
42614;SDS011;28754;47.700;7.924;2023-12-22T10:06:42;20.40;;;2.30;;
42614;SDS011;28754;47.700;7.924;2023-12-22T10:09:33;10.63;;;2.30;;
42614;SDS011;28754;47.700;7.924;2023-12-22T10:12:22;374.98;;;33.72;;
42614;SDS011;28754;47.700;7.924;2023-12-22T10:15:12;307.80;;;28.52;;
42614;SDS011;28754;47.700;7.924;2023-12-22T10:18:00;226.13;;;24.48;;
42614;SDS011;28754;47.700;7.924;2023-12-22T10:20:47;278.45;;;23.85;;
42614;SDS011;28754;47.700;7.924;2023-12-22T10:23:34;262.60;;;20.00;;
42614;SDS011;28754;47.700;7.924;2023-12-22T10:26:20;273.95;;;23.30;;
42614;SDS011;28754;47.700;7.924;2023-12-22T10:29:07;353.13;;;29.83;;
42614;SDS011;28754;47.700;7.924;2023-12-22T10:31:54;439.58;;;37.50;;
42614;SDS011;28754;47.700;7.924;2023-12-22T10:34:41;407.85;;;42.33;;
42614;SDS011;28754;47.700;7.924;2023-12-22T10:37:28;373.98;;;34.00;;
42614;SDS011;28754;47.700;7.924;2023-12-22T10:40:15;298.52;;;25.80;;
42614;SDS011;28754;47.700;7.924;2023-12-22T10:43:04;313.88;;;25.85;;
42614;SDS011;28754;47.700;7.924;2023-12-22T10:45:53;267.27;;;20.88;;
42614;SDS011;28754;47.700;7.924;2023-12-22T10:48:41;269.05;;;21.23;;
42614;SDS011;28754;47.700;7.924;2023-12-22T10:51:28;238.88;;;16.40;;
42614;SDS011;28754;47.700;7.924;2023-12-22T10:54:19;218.65;;;19.02;;
42614;SDS011;28754;47.700;7.924;2023-12-22T10:57:06;161.77;;;16.58;;
42614;SDS011;28754;47.700;7.924;2023-12-22T10:59:53;71.25;;;6.53;;
42614;SDS011;28754;47.700;7.924;2023-12-22T11:02:43;58.22;;;5.00;;
42614;SDS011;28754;47.700;7.924;2023-12-22T11:05:34;25.02;;;3.15;;
42614;SDS011;28754;47.700;7.924;2023-12-22T11:08:26;181.18;;;10.68;;
42614;SDS011;28754;47.700;7.924;2023-12-22T11:11:27;200.85;;;14.80;;
42614;SDS011;28754;47.700;7.924;2023-12-22T11:14:18;207.70;;;14.85;;
42614;SDS011;28754;47.700;7.924;2023-12-22T11:17:06;96.50;;;9.82;;
42614;SDS011;28754;47.700;7.924;2023-12-22T11:19:56;131.65;;;12.15;;
42614;SDS011;28754;47.700;7.924;2023-12-22T11:22:44;169.32;;;10.35;;
42614;SDS011;28754;47.700;7.924;2023-12-22T11:25:31;176.10;;;13.90;;
42614;SDS011;28754;47.700;7.924;2023-12-22T11:28:20;255.95;;;18.15;;
42614;SDS011;28754;47.700;7.924;2023-12-22T11:31:08;361.75;;;21.52;;
42614;SDS011;28754;47.700;7.924;2023-12-22T11:33:56;325.98;;;22.15;;
42614;SDS011;28754;47.700;7.924;2023-12-22T11:36:47;381.92;;;20.15;;
42614;SDS011;28754;47.700;7.924;2023-12-22T11:39:36;181.02;;;11.70;;
42614;SDS011;28754;47.700;7.924;2023-12-22T11:42:25;268.88;;;16.20;;
42614;SDS011;28754;47.700;7.924;2023-12-22T11:45:20;325.67;;;20.15;;
42614;SDS011;28754;47.700;7.924;2023-12-22T11:48:09;278.15;;;13.00;;
42614;SDS011;28754;47.700;7.924;2023-12-22T11:50:57;329.98;;;21.55;;
42614;SDS011;28754;47.700;7.924;2023-12-22T11:53:44;297.50;;;18.02;;
42614;SDS011;28754;47.700;7.924;2023-12-22T11:56:31;194.52;;;13.10;;
42614;SDS011;28754;47.700;7.924;2023-12-22T11:59:20;258.23;;;22.15;;
42614;SDS011;28754;47.700;7.924;2023-12-22T12:02:08;305.00;;;22.30;;
42614;SDS011;28754;47.700;7.924;2023-12-22T12:04:54;186.07;;;12.70;;
42614;SDS011;28754;47.700;7.924;2023-12-22T12:07:47;114.30;;;11.05;;
42614;SDS011;28754;47.700;7.924;2023-12-22T12:13:37;270.42;;;23.33;;
42614;SDS011;28754;47.700;7.924;2023-12-22T12:16:30;231.10;;;15.15;;
42614;SDS011;28754;47.700;7.924;2023-12-22T12:19:18;318.00;;;17.17;;
42614;SDS011;28754;47.700;7.924;2023-12-22T12:22:05;141.07;;;9.38;;
42614;SDS011;28754;47.700;7.924;2023-12-22T12:24:53;196.65;;;13.07;;
42614;SDS011;28754;47.700;7.924;2023-12-22T12:27:40;253.70;;;15.13;;
42614;SDS011;28754;47.700;7.924;2023-12-22T12:30:26;229.00;;;15.20;;
42614;SDS011;28754;47.700;7.924;2023-12-22T12:33:14;234.15;;;18.77;;
42614;SDS011;28754;47.700;7.924;2023-12-22T12:36:03;173.88;;;12.38;;
42614;SDS011;28754;47.700;7.924;2023-12-22T12:39:06;65.80;;;4.30;;
42614;SDS011;28754;47.700;7.924;2023-12-22T12:41:57;184.07;;;11.02;;
42614;SDS011;28754;47.700;7.924;2023-12-22T12:44:50;263.23;;;16.95;;
42614;SDS011;28754;47.700;7.924;2023-12-22T12:47:39;216.10;;;14.68;;
42614;SDS011;28754;47.700;7.924;2023-12-22T12:50:26;46.25;;;3.95;;
42614;SDS011;28754;47.700;7.924;2023-12-22T12:53:19;245.13;;;18.00;;
42614;SDS011;28754;47.700;7.924;2023-12-22T12:56:06;217.18;;;14.57;;
42614;SDS011;28754;47.700;7.924;2023-12-22T12:58:53;211.77;;;18.85;;
42614;SDS011;28754;47.700;7.924;2023-12-22T13:01:46;316.33;;;20.52;;
42614;SDS011;28754;47.700;7.924;2023-12-22T13:04:37;257.77;;;19.05;;
42614;SDS011;28754;47.700;7.924;2023-12-22T13:07:25;198.18;;;14.80;;
42614;SDS011;28754;47.700;7.924;2023-12-22T13:10:22;88.97;;;5.80;;
42614;SDS011;28754;47.700;7.924;2023-12-22T13:13:10;71.28;;;4.80;;
42614;SDS011;28754;47.700;7.924;2023-12-22T13:15:57;179.07;;;13.73;;
42614;SDS011;28754;47.700;7.924;2023-12-22T13:18:44;236.27;;;16.30;;
42614;SDS011;28754;47.700;7.924;2023-12-22T13:21:31;216.32;;;18.48;;
42614;SDS011;28754;47.700;7.924;2023-12-22T13:24:18;94.75;;;10.00;;
42614;SDS011;28754;47.700;7.924;2023-12-22T13:27:05;41.25;;;2.58;;
42614;SDS011;28754;47.700;7.924;2023-12-22T13:29:52;183.90;;;11.93;;
42614;SDS011;28754;47.700;7.924;2023-12-22T13:32:40;165.85;;;12.48;;
42614;SDS011;28754;47.700;7.924;2023-12-22T13:35:26;189.07;;;12.85;;
42614;SDS011;28754;47.700;7.924;2023-12-22T13:38:14;245.95;;;17.27;;
42614;SDS011;28754;47.700;7.924;2023-12-22T13:41:01;163.57;;;9.95;;
42614;SDS011;28754;47.700;7.924;2023-12-22T13:43:49;49.95;;;3.90;;
42614;SDS011;28754;47.700;7.924;2023-12-22T13:46:35;52.42;;;4.55;;
42614;SDS011;28754;47.700;7.924;2023-12-22T13:49:23;149.48;;;10.52;;
42614;SDS011;28754;47.700;7.924;2023-12-22T13:52:25;182.82;;;14.52;;
42614;SDS011;28754;47.700;7.924;2023-12-22T13:55:19;63.33;;;5.20;;
42614;SDS011;28754;47.700;7.924;2023-12-22T13:58:08;30.30;;;4.43;;
42614;SDS011;28754;47.700;7.924;2023-12-22T14:00:57;99.43;;;8.13;;
42614;SDS011;28754;47.700;7.924;2023-12-22T14:03:44;36.22;;;4.63;;
42614;SDS011;28754;47.700;7.924;2023-12-22T14:06:31;142.27;;;8.63;;
42614;SDS011;28754;47.700;7.924;2023-12-22T14:09:18;121.78;;;12.13;;
42614;SDS011;28754;47.700;7.924;2023-12-22T14:12:09;187.48;;;13.00;;
42614;SDS011;28754;47.700;7.924;2023-12-22T14:14:56;131.27;;;9.93;;
42614;SDS011;28754;47.700;7.924;2023-12-22T14:17:43;31.75;;;2.65;;
42614;SDS011;28754;47.700;7.924;2023-12-22T14:20:29;175.32;;;12.57;;
42614;SDS011;28754;47.700;7.924;2023-12-22T14:23:16;219.60;;;14.07;;
42614;SDS011;28754;47.700;7.924;2023-12-22T14:26:03;152.88;;;8.38;;
42614;SDS011;28754;47.700;7.924;2023-12-22T14:28:51;103.63;;;6.68;;
42614;SDS011;28754;47.700;7.924;2023-12-22T14:31:38;225.25;;;14.90;;
42614;SDS011;28754;47.700;7.924;2023-12-22T14:34:24;276.95;;;16.60;;
42614;SDS011;28754;47.700;7.924;2023-12-22T14:37:11;191.52;;;13.05;;
42614;SDS011;28754;47.700;7.924;2023-12-22T14:39:58;157.10;;;13.65;;
42614;SDS011;28754;47.700;7.924;2023-12-22T14:42:45;233.85;;;16.83;;
42614;SDS011;28754;47.700;7.924;2023-12-22T14:45:31;236.55;;;14.60;;
42614;SDS011;28754;47.700;7.924;2023-12-22T14:48:18;189.88;;;16.65;;
42614;SDS011;28754;47.700;7.924;2023-12-22T14:51:05;243.82;;;17.15;;
42614;SDS011;28754;47.700;7.924;2023-12-22T14:53:52;98.07;;;9.75;;
42614;SDS011;28754;47.700;7.924;2023-12-22T14:56:38;230.95;;;14.60;;
42614;SDS011;28754;47.700;7.924;2023-12-22T14:59:28;211.40;;;13.93;;
42614;SDS011;28754;47.700;7.924;2023-12-22T15:02:14;285.08;;;21.38;;
42614;SDS011;28754;47.700;7.924;2023-12-22T15:05:01;105.85;;;9.75;;
42614;SDS011;28754;47.700;7.924;2023-12-22T15:07:50;193.05;;;14.68;;
42614;SDS011;28754;47.700;7.924;2023-12-22T15:10:37;137.38;;;9.20;;
42614;SDS011;28754;47.700;7.924;2023-12-22T15:13:24;10.68;;;1.10;;
42614;SDS011;28754;47.700;7.924;2023-12-22T15:16:10;90.82;;;5.57;;
42614;SDS011;28754;47.700;7.924;2023-12-22T15:18:57;0.60;;;0.30;;
42614;SDS011;28754;47.700;7.924;2023-12-22T15:21:44;2.25;;;0.50;;
42614;SDS011;28754;47.700;7.924;2023-12-22T15:24:30;44.22;;;4.65;;
42614;SDS011;28754;47.700;7.924;2023-12-22T15:27:17;34.67;;;2.85;;
42614;SDS011;28754;47.700;7.924;2023-12-22T15:30:04;87.35;;;10.40;;
42614;SDS011;28754;47.700;7.924;2023-12-22T15:32:51;125.22;;;10.38;;
42614;SDS011;28754;47.700;7.924;2023-12-22T15:35:38;89.97;;;8.38;;
42614;SDS011;28754;47.700;7.924;2023-12-22T15:38:24;63.95;;;4.05;;
42614;SDS011;28754;47.700;7.924;2023-12-22T15:41:11;177.10;;;14.93;;
42614;SDS011;28754;47.700;7.924;2023-12-22T15:43:59;82.85;;;6.03;;
42614;SDS011;28754;47.700;7.924;2023-12-22T15:46:46;151.07;;;11.38;;
42614;SDS011;28754;47.700;7.924;2023-12-22T15:49:32;207.52;;;16.08;;
42614;SDS011;28754;47.700;7.924;2023-12-22T15:52:22;256.23;;;17.60;;
42614;SDS011;28754;47.700;7.924;2023-12-22T15:55:09;131.90;;;10.15;;
42614;SDS011;28754;47.700;7.924;2023-12-22T15:57:57;165.73;;;11.30;;
42614;SDS011;28754;47.700;7.924;2023-12-22T16:00:43;51.88;;;7.22;;
42614;SDS011;28754;47.700;7.924;2023-12-22T16:03:30;30.10;;;1.95;;
42614;SDS011;28754;47.700;7.924;2023-12-22T16:06:17;42.50;;;5.22;;
42614;SDS011;28754;47.700;7.924;2023-12-22T16:09:04;31.65;;;4.03;;
42614;SDS011;28754;47.700;7.924;2023-12-22T16:11:50;85.25;;;6.82;;
42614;SDS011;28754;47.700;7.924;2023-12-22T16:14:38;274.02;;;23.08;;
42614;SDS011;28754;47.700;7.924;2023-12-22T16:17:25;261.13;;;22.05;;
42614;SDS011;28754;47.700;7.924;2023-12-22T16:20:11;163.05;;;15.57;;
42614;SDS011;28754;47.700;7.924;2023-12-22T16:23:01;369.20;;;32.95;;
42614;SDS011;28754;47.700;7.924;2023-12-22T16:25:48;347.58;;;28.13;;
42614;SDS011;28754;47.700;7.924;2023-12-22T16:28:36;213.00;;;21.65;;
42614;SDS011;28754;47.700;7.924;2023-12-22T16:31:23;142.75;;;12.20;;